Terminal Aerodrome Forecast
Issued by NWS Cleveland, OH

Home | Current Version | Previous Version | Text Only | Print | Product List | Glossary On
Versions: 1 2 3 4 5 6 7 8 9 10 11 12 13 14 15 16
011
FTUS41 KCLE 042323
TAFYNG
TAF
KYNG 042323Z 0500/0524 11008KT P6SM OVC100
      TEMPO 0500/0502 5SM -RA OVC035
     FM050200 15010KT 5SM -RA BR OVC015
      TEMPO 0502/0506 3SM -RASN BR OVC008
     FM050600 22012KT 6SM -RASN OVC008
     FM051500 26008KT P6SM OVC015
     FM052200 23004KT P6SM OVC035
     FM052300 VRB03KT P6SM OVC250=

USA.gov is the U.S. government's official web portal to all federal, state and local government web resources and services.